Little Red, Arkansas
Current Conditions -  °F | °C
As of 5:10 AM on Monday 22 Dec 2014 (Local Time) from KSRC Reporting Station
Haze Haze  
Wind Chill: 43°   Ceiling: 400
Heat Index: 46°   Visibility: 4mi
Dew Point: 46°   Wind: 7mph
Humidity: 100%   Direction: 150°SSE
Pressure: 29.79"   Gusts: NA
Location:  35.4331°N, 91.7663°W
Report Text: KSRC 221110Z AUTO 15006KT 4SM BR OVC004 08/08 A2979 RMK AO2 TSNO
Loading
Personal Weather Stations






























Interactive Weather Map New forecast layout! Learn more

10-Day Weather Forecast

Advertisements
Track Severe Weather on mobile